Disclaimer

    

CYCD

METAR CYCD 280000Z 09004KT 12SM OVC010 08/06 A3028 RMK SC8 CIG RAG SLP256=

METAR CYCD 272300Z 05005KT 12SM OVC012 08/06 A3029 RMK SC8 CIG RAG SLP261=

METAR CYCD 272200Z 03005KT 360V080 12SM OVC012 09/07 A3030 RMK SC8 CIG RAG SLP262=

TAF CYCD 272338Z 2800/2804 VRB03KT P6SM SCT008 OVC012 TEMPO 2800/2804 3SM -DZ BR SCT004 BKN008 RMK NXT FCST WILL BE ISSUED AT 281445Z=

CYVR

METAR CYVR 280000Z 06010KT 20SM SCT017 BKN023 OVC053 09/07 A3029 RMK SC3SC4SC1 SLP257=

METAR CYVR 272300Z 07008KT 20SM BKN017 BKN023 OVC066 09/06 A3030 RMK SC5SC2AC1 SLP263=

SPECI CYVR 272235Z 06010KT 20SM BKN015 OVC023 OVC070 08/06 A3030 RMK SC6SC2AC1 AC TR SLP262=

METAR CYVR 272200Z 06010KT 15SM BKN014 OVC020 08/06 A3032 RMK SC6SC2 SLP267=

TAF CYVR 272338Z 2800/2906 06010KT P6SM SCT012 BKN020 TEMPO 2800/2802 4SM -RA BR SCT008 BKN012
FM280200 09010KT P6SM SCT008 OVC012 TEMPO 2802/2822 3SM -RA BR BKN008
FM282200 11008KT P6SM SCT012 BKN030 TEMPO 2822/2906 P6SM -RA BKN012 RMK NXT FCST BY 280300Z=

CYXX

METAR CYXX 280000Z 01005KT 3SM -DZ FEW005 BKN028 OVC030 07/07 A3029 RMK SF2ST4SC2 SLP261=

METAR CYXX 272300Z 02005KT 3SM -DZ FEW005 BKN029 OVC038 08/07 A3031 RMK SF2ST3SC3 SLP267=

METAR CYXX 272200Z 03005KT 3SM -DZ SCT025 BKN028 BKN047 08/06 A3032 RMK ST4SC3SC1 SC TR SLP271=

TAF CYXX 272338Z 2800/2824 VRB03KT 5SM -RA BR SCT008 BKN025 TEMPO 2800/2812 3SM -RA BR BKN008 PROB30 2800/2812 1SM -DZ BR OVC005
FM281200 22006KT P6SM SCT012 OVC020 TEMPO 2812/2821 5SM -RA BR OVC012
FM282100 20010KT P6SM SCT012 BKN030 TEMPO 2821/2824 P6SM -RA RMK NXT FCST BY 280600Z=

Supplemental information

Lower mainland ATIS: 1-877-517-2847

CZBB (Boundary Bay) current winds

Upper winds (Vancouver)

Data fromValid at300060009000
27120027180019102923+023047+01
27120028000022162833+043045+02
27120028120021112834+052949+02

NOTAMs

On October 10, 2019, NAV CANADA changed to the ICAO NOTAM format. They are now available only through Collaborative Flight Planning Services (CFPS) (plan.navcanada.ca). I'm working to update this site to pull in the relevant NOTAMs in the new format.